Terminal Aerodrome Forecast
Issued by NWS Grand Forks, ND

Home | Current Version | Previous Version | Text Only | Print | Product List | Glossary Off
Versions: 1 2 3 4 5 6 7 8 9 10 11 12 13 14 15 16 17

000
FTUS43 KFGF 090521
TAFFAR
TAF
KFAR 090521Z 0906/1006 36016KT P6SM BKN025
     FM091400 32007KT P6SM BKN035
     FM091700 26006KT P6SM SCT200
     FM092200 20009KT P6SM BKN100
     FM100300 23012KT P6SM SCT150=

USA.gov is the U.S. government's official web portal to all federal, state and local government web resources and services.